MKJS/MBJ METAR and TAF weather

Enter ICAO airport designator
Station Type Date Time Source
MKJS METAR 2022/07/01 02:00 UTC NOAA

MKJS 010200Z 10006KT 9999 FEW022 28/27 Q1014


Station Type Date Time Source
MKJS Decoded METAR 2022/07/01 02:00 UTC NOAA

Montego Bay / Sangster, Jamaica (MKJS) 18-30N 077-55W 8M
Jun 30, 2022 - 10:00 PM EDT / 2022.07.01 0200 UTC
Wind: from the E (100 degrees) at 7 MPH (6 KT):0
Visibility: greater than 7 mile(s):0
Sky conditions: mostly clear
Temperature: 82 F (28 C)
Dew Point: 80 F (27 C)
Relative Humidity: 94%
Pressure (altimeter): 29.94 in. Hg (1014 hPa)
ob: MKJS 010200Z 10006KT 9999 FEW022 28/27 Q1014
cycle: 2

Station Type Date Time Source
MKJS TAF 2022/06/30 18:18 UTC NOAA

TAF MKJS 301715Z 3018/0118 07018KT 9999 SCT022 FEW024CB
BECMG 0102/0104 12006KT
BECMG 0115/0117 06015KT

Example: see airport list